Stations météo

réclame
Mon MeteoGroup
La Roda de Andalucia, Espagne (8399): Température de l'air & dewpoint: 14.10.2017 09:00:00 - 20.10.2017 09:00:00 (CEST)La Roda de Andalucia, Espagne (8399): Vitesse du vent & gusts: 14.10.2017 09:00:00 - 20.10.2017 09:00:00 (CEST)La Roda de Andalucia, Espagne (8399): Direction du vent: 14.10.2017 09:00:00 - 20.10.2017 09:00:00 (CEST)La Roda de Andalucia, Espagne (8399): reduced air pressure: 14.10.2017 09:00:00 - 20.10.2017 09:00:00 (CEST)La Roda de Andalucia, Espagne (8399): Ensoleillement: 14.10.2017 09:00:00 - 20.10.2017 09:00:00 (CEST)La Roda de Andalucia, Espagne (8399): Quantités de précipitations: 14.10.2017 09:00:00 - 20.10.2017 09:00:00 (CEST)
Date & Time tt [°C] td [°C] ff [km/h] ff [knt] fx [km/h] fx [knt] dd ppp [hPa] sd [min] rr [mm]
20.10.2017 09:00:00 - - - - - - - - - -
20.10.2017 08:00:00 13,8 12,3 2 1 12 7 SSW 1019,6 0 -
20.10.2017 07:00:00 14,4 13,0 6 3 12 7 WSW 1019,2 0 0,0
20.10.2017 06:00:00 14,9 13,5 8 4 14 8 WSW 1018,9 0 0,0
20.10.2017 05:00:00 14,6 13,2 4 2 11 6 SSW 1018,8 0 0,0
20.10.2017 04:00:00 14,3 12,6 5 3 13 7 W 1019,0 0 0,0
20.10.2017 03:00:00 14,6 12,8 7 4 16 9 W 1018,9 0 0,0
20.10.2017 02:00:00 14,9 12,7 10 5 23 12 W 1018,8 0 -
20.10.2017 01:00:00 15,2 13,1 10 6 19 10 W 1018,5 0 0,0
20.10.2017 00:00:00 16,1 13,3 9 5 19 10 W 1017,9 0 0,0
19.10.2017 23:00:00 16,1 13,6 10 5 20 11 WNW 1017,7 0 0,0
19.10.2017 22:00:00 15,8 13,5 7 4 14 8 W 1016,8 0 0,0
19.10.2017 21:00:00 16,2 13,2 6 4 18 10 W 1016,4 0 0,0
19.10.2017 20:00:00 16,8 13,4 9 5 21 11 W 1015,4 3 -
19.10.2017 19:00:00 17,4 12,5 9 5 27 14 WNW 1014,5 6 0,0
19.10.2017 18:00:00 18,1 12,5 14 8 31 17 WNW 1013,9 23 0,0
19.10.2017 17:00:00 19,2 12,2 16 9 36 19 WNW 1013,3 52 0,0
19.10.2017 16:00:00 18,1 12,1 13 7 26 14 NW 1013,5 21 0,0
19.10.2017 15:00:00 18,5 12,2 16 9 26 14 W 1013,4 20 0,0
19.10.2017 14:00:00 17,7 10,8 13 7 23 12 NW 1014,0 15 -
19.10.2017 13:00:00 17,0 12,3 9 5 19 10 WNW 1014,1 0 0,0
19.10.2017 12:00:00 16,1 13,1 8 4 16 9 W 1013,7 10 0,0
19.10.2017 11:00:00 14,8 13,2 9 5 16 8 W 1013,5 0 0,0
19.10.2017 10:00:00 14,2 12,7 5 3 9 5 W 1012,8 0 0,0
19.10.2017 09:00:00 13,7 12,2 3 2 6 3 WSW 1011,6 0 0,0
19.10.2017 08:00:00 13,6 12,1 4 2 13 7 S 1011,6 0 -
19.10.2017 07:00:00 13,9 12,4 5 3 11 6 SSE 1011,2 0 0,8
19.10.2017 06:00:00 14,0 12,5 7 4 14 8 SSE 1010,5 0 0,2
19.10.2017 05:00:00 14,3 12,8 5 3 16 9 S 1010,9 0 0,8
19.10.2017 04:00:00 14,4 12,7 4 2 13 7 E 1012,0 0 0,4
19.10.2017 03:00:00 14,5 12,8 7 4 22 12 SSW 1012,4 0 1,6
19.10.2017 02:00:00 14,7 13,0 6 4 18 10 SW 1013,1 0 -
19.10.2017 01:00:00 14,7 12,7 10 5 17 9 SSW 1013,5 0 0,4
19.10.2017 00:00:00 15,3 13,5 4 2 19 11 S 1014,2 0 0,4
18.10.2017 23:00:00 15,3 13,4 10 5 24 13 SSW 1013,3 0 0,0
18.10.2017 22:00:00 15,2 13,1 5 3 18 10 SW 1013,8 0 0,0
18.10.2017 21:00:00 15,4 13,5 8 4 15 8 SW 1013,4 0 0,0
18.10.2017 20:00:00 15,7 13,8 8 4 16 8 S 1013,1 0 -
18.10.2017 19:00:00 15,9 13,8 10 5 18 10 WSW 1013,0 0 0,0
18.10.2017 18:00:00 16,1 13,8 10 6 25 14 WSW 1012,7 0 1,0
18.10.2017 17:00:00 16,9 13,5 6 4 18 10 WSW 1012,7 9 0,0
18.10.2017 16:00:00 17,1 13,3 12 6 25 14 WNW 1012,8 15 0,0
18.10.2017 15:00:00 16,6 14,0 6 3 27 15 W 1013,5 1 2,8
18.10.2017 14:00:00 16,2 13,2 14 7 36 19 WNW 1014,6 0 -
18.10.2017 13:00:00 16,4 14,0 7 4 20 11 WSW 1014,8 0 0,0
18.10.2017 12:00:00 15,2 13,6 6 4 27 14 WSW 1015,0 0 2,8
18.10.2017 11:00:00 15,5 14,0 4 2 12 7 SSW 1015,0 0 0,8
18.10.2017 10:00:00 15,0 13,6 7 4 12 6 SSW 1014,9 0 1,8
18.10.2017 09:00:00 14,4 12,7 7 4 21 11 S 1014,4 0 1,0
18.10.2017 08:00:00 14,3 12,5 11 6 25 13 SSE 1014,4 0 -
18.10.2017 07:00:00 14,0 12,2 13 7 29 15 SSE 1014,3 0 4,2
18.10.2017 06:00:00 14,8 12,8 14 8 34 18 S 1014,7 0 9,0
18.10.2017 05:00:00 16,0 14,1 8 4 31 17 NW 1015,4 0 4,0
18.10.2017 04:00:00 17,4 12,5 11 6 31 17 S 1015,0 0 0,0
18.10.2017 03:00:00 17,5 12,2 10 5 26 14 S 1016,1 0 0,0
18.10.2017 02:00:00 16,9 12,0 8 4 21 11 S 1016,6 0 -
18.10.2017 01:00:00 17,1 12,4 12 7 30 16 S 1017,0 0 0,0
18.10.2017 00:00:00 17,3 12,4 11 6 23 12 S 1017,4 0 0,0
17.10.2017 23:00:00 17,6 10,5 9 5 20 11 SSW 1018,3 0 0,0
17.10.2017 22:00:00 18,4 10,8 8 4 18 10 SW 1018,1 0 0,0
17.10.2017 21:00:00 19,0 11,6 11 6 26 14 S 1017,9 0 0,0
17.10.2017 20:00:00 19,8 11,6 16 8 30 16 SSE 1017,6 0 -
17.10.2017 19:00:00 21,1 11,4 13 7 32 17 S 1017,3 0 0,0
17.10.2017 18:00:00 22,4 11,1 15 8 33 18 S 1017,6 13 0,0
17.10.2017 17:00:00 22,5 11,9 16 9 41 22 S 1017,8 33 0,0
17.10.2017 16:00:00 23,3 11,7 15 8 37 20 S 1018,0 46 0,0
17.10.2017 15:00:00 22,1 11,8 17 9 44 24 S 1019,0 18 0,0
17.10.2017 14:00:00 21,2 12,1 21 11 46 25 SSE 1019,5 0 -
17.10.2017 13:00:00 20,4 12,8 25 13 49 26 S 1019,8 0 0,0
17.10.2017 12:00:00 20,0 13,3 18 10 45 25 S 1020,7 0 0,0
17.10.2017 11:00:00 19,7 13,4 24 13 45 25 S 1020,8 0 0,0
17.10.2017 10:00:00 18,8 13,3 21 11 40 22 SSE 1020,7 0 0,0
17.10.2017 09:00:00 18,1 13,0 18 10 37 20 S 1020,4 0 0,0
17.10.2017 08:00:00 18,1 12,5 14 8 38 21 S 1020,1 0 -
17.10.2017 07:00:00 18,0 12,6 10 5 34 18 S 1019,8 0 0,0
17.10.2017 06:00:00 18,3 12,7 18 10 37 20 S 1020,1 0 0,0
17.10.2017 05:00:00 18,1 12,3 18 10 44 24 S 1020,7 0 0,0
17.10.2017 04:00:00 17,9 12,3 16 9 38 20 S 1021,2 0 0,0
17.10.2017 03:00:00 17,5 12,0 13 7 33 18 S 1021,7 0 0,0
17.10.2017 02:00:00 17,2 11,4 14 7 29 15 S 1022,2 0 -
17.10.2017 01:00:00 17,3 12,4 16 9 36 19 S 1022,5 0 0,0
17.10.2017 00:00:00 17,5 11,6 16 9 37 20 S 1022,7 0 0,0
16.10.2017 23:00:00 17,8 11,3 13 7 27 14 S 1022,6 0 0,0
16.10.2017 22:00:00 17,9 10,3 15 8 30 16 S 1022,4 0 0,0
16.10.2017 21:00:00 18,7 9,4 14 8 30 16 S 1022,1 0 0,0
16.10.2017 20:00:00 19,9 9,4 15 8 34 19 S 1021,7 2 -
16.10.2017 19:00:00 21,8 9,0 18 10 44 24 S 1021,1 53 0,0
16.10.2017 18:00:00 24,2 9,8 21 11 45 24 SSE 1020,5 60 0,0
16.10.2017 17:00:00 25,5 8,0 21 12 45 24 S 1020,5 60 0,0
16.10.2017 16:00:00 25,9 8,4 24 13 51 28 S 1020,6 60 0,0
16.10.2017 15:00:00 26,1 7,7 23 13 48 26 S 1020,9 60 0,0
16.10.2017 14:00:00 25,6 6,2 26 14 48 26 S 1021,6 60 -
16.10.2017 13:00:00 24,5 8,8 24 13 53 29 S 1022,0 60 0,0
16.10.2017 12:00:00 23,2 10,6 25 13 51 27 S 1022,3 60 0,0
16.10.2017 11:00:00 21,9 10,4 24 13 49 27 S 1022,2 60 0,0
16.10.2017 10:00:00 20,4 9,9 21 12 43 23 S 1022,0 31 0,0
16.10.2017 09:00:00 17,6 9,7 19 10 39 21 S 1021,6 0 0,0
16.10.2017 08:00:00 18,2 9,6 20 11 38 20 S 1021,2 0 -
16.10.2017 07:00:00 17,4 11,2 16 9 39 21 S 1021,2 0 0,0
16.10.2017 06:00:00 18,0 11,3 16 9 41 22 S 1021,0 0 0,0
16.10.2017 05:00:00 18,4 12,6 21 12 39 21 S 1021,1 0 0,0
16.10.2017 04:00:00 18,6 13,1 19 10 45 24 S 1021,4 0 0,0
16.10.2017 03:00:00 18,7 13,4 22 12 48 26 SSE 1021,4 0 0,0
16.10.2017 02:00:00 19,0 13,7 28 15 49 27 SSE 1021,6 0 -
16.10.2017 01:00:00 19,1 13,5 24 13 52 28 S 1022,0 0 0,0
16.10.2017 00:00:00 20,0 7,4 14 8 26 14 S 1021,8 0 0,0
15.10.2017 23:00:00 20,3 5,1 12 7 23 12 SSE 1021,4 0 0,0
15.10.2017 22:00:00 21,6 5,5 11 6 29 16 SSE 1021,0 0 0,0
15.10.2017 21:00:00 22,1 5,5 11 6 26 14 S 1020,6 0 0,0
15.10.2017 20:00:00 23,8 5,1 9 5 34 18 SSW 1020,1 28 -
15.10.2017 19:00:00 26,7 5,0 15 8 35 19 S 1019,6 60 0,0
15.10.2017 18:00:00 28,6 4,8 14 8 39 21 S 1019,3 56 0,0
15.10.2017 17:00:00 29,6 2,7 19 10 39 21 S 1019,3 60 0,0
15.10.2017 16:00:00 30,2 3,9 18 10 44 24 S 1019,6 60 0,0
15.10.2017 15:00:00 30,3 3,4 20 11 39 21 S 1019,9 60 0,0
15.10.2017 14:00:00 29,6 2,7 21 12 43 23 S 1020,8 60 -
15.10.2017 13:00:00 29,2 3,9 17 9 35 19 S 1021,4 60 0,0
15.10.2017 12:00:00 28,1 3,8 14 8 33 18 S 1021,9 60 0,0
15.10.2017 11:00:00 26,0 3,2 15 8 30 16 SSE 1022,2 60 0,0
15.10.2017 10:00:00 22,0 4,5 12 7 27 14 SSE 1022,5 23 0,0
15.10.2017 09:00:00 16,4 6,8 8 5 18 10 S 1023,0 0 0,0
15.10.2017 08:00:00 16,8 7,4 7 4 21 12 S 1022,9 0 -
15.10.2017 07:00:00 18,4 6,8 13 7 25 14 S 1022,7 0 0,0
15.10.2017 06:00:00 17,7 6,2 15 8 31 17 S 1022,5 0 0,0
15.10.2017 05:00:00 17,8 5,8 15 8 31 17 S 1022,5 0 0,0
15.10.2017 04:00:00 18,5 4,6 11 6 22 12 S 1022,6 0 0,0
15.10.2017 03:00:00 19,0 2,3 5 3 18 10 SE 1023,1 0 0,0
15.10.2017 02:00:00 18,9 3,0 4 2 25 13 S 1023,3 0 -
15.10.2017 01:00:00 20,3 3,0 12 7 27 14 S 1023,0 0 0,0
15.10.2017 00:00:00 20,3 3,0 14 8 25 14 S 1023,1 0 0,0
14.10.2017 23:00:00 21,7 1,9 14 7 28 15 S 1022,7 0 0,0
14.10.2017 22:00:00 22,5 1,5 14 8 26 14 S 1022,3 0 0,0
14.10.2017 21:00:00 23,6 1,3 13 7 26 14 S 1022,1 0 0,0
14.10.2017 20:00:00 25,5 1,5 12 7 23 13 S 1021,5 0 -
14.10.2017 19:00:00 28,0 2,9 10 5 23 12 S 1020,9 3 0,0
14.10.2017 18:00:00 30,4 0,9 11 6 26 14 SSE 1020,3 45 0,0
14.10.2017 17:00:00 32,2 1,3 12 6 26 14 SSE 1019,8 60 0,0
14.10.2017 16:00:00 32,4 1,5 10 5 22 12 S 1020,2 39 0,0
14.10.2017 15:00:00 30,5 1,9 8 4 16 9 S 1021,0 20 0,0
14.10.2017 14:00:00 29,2 0,9 10 6 20 11 S 1021,8 3 -
14.10.2017 13:00:00 28,2 0,9 9 5 20 11 S 1022,4 6 0,0
14.10.2017 12:00:00 26,3 1,5 10 5 33 18 S 1022,8 18 0,0
14.10.2017 11:00:00 24,7 0,9 13 7 28 15 S 1022,8 40 0,0
14.10.2017 10:00:00 21,4 1,7 5 3 11 6 S 1023,0 15 0,0
14.10.2017 09:00:00 17,3 0,4 9 5 16 9 S 1023,1 0 0,0

tt = Température de l'air
td = dewpoint
ff = Vitesse du vent
fx = gusts
dd = Direction du vent
ppp = reduced air pressure
sd = Ensoleillement
rr = Quantités de précipitations

stations d'obs. à proximité